sensor_id;sensor_type;location;lat;lon;timestamp;P1;durP1;ratioP1;P2;durP2;ratioP2
26042;SDS011;13818;52.156;5.382;2023-11-21T00:01:54;15.10;;;5.00;;
26042;SDS011;13818;52.156;5.382;2023-11-21T00:04:21;11.65;;;4.68;;
26042;SDS011;13818;52.156;5.382;2023-11-21T00:06:47;11.95;;;5.18;;
26042;SDS011;13818;52.156;5.382;2023-11-21T00:09:15;8.40;;;4.57;;
26042;SDS011;13818;52.156;5.382;2023-11-21T00:11:42;12.77;;;5.72;;
26042;SDS011;13818;52.156;5.382;2023-11-21T00:14:09;10.43;;;4.72;;
26042;SDS011;13818;52.156;5.382;2023-11-21T00:16:35;9.18;;;4.47;;
26042;SDS011;13818;52.156;5.382;2023-11-21T00:19:02;7.38;;;4.15;;
26042;SDS011;13818;52.156;5.382;2023-11-21T00:21:28;11.48;;;4.82;;
26042;SDS011;13818;52.156;5.382;2023-11-21T00:23:55;9.73;;;3.80;;
26042;SDS011;13818;52.156;5.382;2023-11-21T00:26:22;10.27;;;6.32;;
26042;SDS011;13818;52.156;5.382;2023-11-21T00:28:49;11.65;;;5.97;;
26042;SDS011;13818;52.156;5.382;2023-11-21T00:31:16;10.95;;;4.75;;
26042;SDS011;13818;52.156;5.382;2023-11-21T00:33:43;7.90;;;4.97;;
26042;SDS011;13818;52.156;5.382;2023-11-21T00:36:09;11.30;;;5.40;;
26042;SDS011;13818;52.156;5.382;2023-11-21T00:38:36;9.95;;;4.03;;
26042;SDS011;13818;52.156;5.382;2023-11-21T00:41:05;11.70;;;3.63;;
26042;SDS011;13818;52.156;5.382;2023-11-21T00:43:32;8.75;;;4.93;;
26042;SDS011;13818;52.156;5.382;2023-11-21T00:45:59;10.38;;;3.83;;
26042;SDS011;13818;52.156;5.382;2023-11-21T00:48:25;5.72;;;3.08;;
26042;SDS011;13818;52.156;5.382;2023-11-21T00:50:52;13.30;;;4.65;;
26042;SDS011;13818;52.156;5.382;2023-11-21T00:53:18;8.32;;;5.20;;
26042;SDS011;13818;52.156;5.382;2023-11-21T00:55:45;9.55;;;3.97;;
26042;SDS011;13818;52.156;5.382;2023-11-21T00:58:11;11.18;;;4.32;;
26042;SDS011;13818;52.156;5.382;2023-11-21T01:00:39;10.85;;;4.47;;
26042;SDS011;13818;52.156;5.382;2023-11-21T01:03:06;7.88;;;4.20;;
26042;SDS011;13818;52.156;5.382;2023-11-21T01:05:33;8.27;;;4.25;;
26042;SDS011;13818;52.156;5.382;2023-11-21T01:07:59;6.88;;;3.45;;
26042;SDS011;13818;52.156;5.382;2023-11-21T01:10:26;6.35;;;3.40;;
26042;SDS011;13818;52.156;5.382;2023-11-21T01:12:52;9.93;;;3.15;;
26042;SDS011;13818;52.156;5.382;2023-11-21T01:15:19;11.85;;;5.10;;
26042;SDS011;13818;52.156;5.382;2023-11-21T01:17:47;9.13;;;4.47;;
26042;SDS011;13818;52.156;5.382;2023-11-21T01:20:13;12.85;;;3.97;;
26042;SDS011;13818;52.156;5.382;2023-11-21T01:22:40;8.05;;;3.28;;
26042;SDS011;13818;52.156;5.382;2023-11-21T01:25:07;7.75;;;4.07;;
26042;SDS011;13818;52.156;5.382;2023-11-21T01:27:33;9.27;;;3.38;;
26042;SDS011;13818;52.156;5.382;2023-11-21T01:30:02;4.40;;;3.20;;
26042;SDS011;13818;52.156;5.382;2023-11-21T01:32:29;9.38;;;3.85;;
26042;SDS011;13818;52.156;5.382;2023-11-21T01:34:57;7.70;;;3.92;;
26042;SDS011;13818;52.156;5.382;2023-11-21T01:37:24;5.07;;;2.90;;
26042;SDS011;13818;52.156;5.382;2023-11-21T01:39:52;8.05;;;3.22;;
26042;SDS011;13818;52.156;5.382;2023-11-21T01:42:20;8.77;;;3.45;;
26042;SDS011;13818;52.156;5.382;2023-11-21T01:44:46;8.60;;;4.28;;
26042;SDS011;13818;52.156;5.382;2023-11-21T01:47:13;7.03;;;3.50;;
26042;SDS011;13818;52.156;5.382;2023-11-21T01:49:40;10.60;;;3.55;;
26042;SDS011;13818;52.156;5.382;2023-11-21T01:52:11;6.30;;;2.67;;
26042;SDS011;13818;52.156;5.382;2023-11-21T01:54:38;6.68;;;3.28;;
26042;SDS011;13818;52.156;5.382;2023-11-21T01:57:05;8.50;;;4.32;;
26042;SDS011;13818;52.156;5.382;2023-11-21T01:59:33;5.50;;;3.08;;
26042;SDS011;13818;52.156;5.382;2023-11-21T02:02:02;7.32;;;2.88;;
26042;SDS011;13818;52.156;5.382;2023-11-21T02:04:30;4.93;;;2.40;;
26042;SDS011;13818;52.156;5.382;2023-11-21T02:06:56;9.55;;;3.90;;
26042;SDS011;13818;52.156;5.382;2023-11-21T02:09:25;6.88;;;3.03;;
26042;SDS011;13818;52.156;5.382;2023-11-21T02:11:52;8.75;;;3.42;;
26042;SDS011;13818;52.156;5.382;2023-11-21T02:14:20;12.43;;;3.67;;
26042;SDS011;13818;52.156;5.382;2023-11-21T02:16:48;6.82;;;3.20;;
26042;SDS011;13818;52.156;5.382;2023-11-21T02:19:16;5.65;;;3.97;;
26042;SDS011;13818;52.156;5.382;2023-11-21T02:21:45;5.40;;;2.78;;
26042;SDS011;13818;52.156;5.382;2023-11-21T02:24:14;8.07;;;3.28;;
26042;SDS011;13818;52.156;5.382;2023-11-21T02:26:42;5.68;;;3.13;;
26042;SDS011;13818;52.156;5.382;2023-11-21T02:29:08;4.50;;;2.55;;
26042;SDS011;13818;52.156;5.382;2023-11-21T02:31:39;6.40;;;2.80;;
26042;SDS011;13818;52.156;5.382;2023-11-21T02:34:12;4.28;;;2.25;;
26042;SDS011;13818;52.156;5.382;2023-11-21T02:36:41;4.70;;;2.20;;
26042;SDS011;13818;52.156;5.382;2023-11-21T02:39:08;6.68;;;3.00;;
26042;SDS011;13818;52.156;5.382;2023-11-21T02:41:37;10.65;;;3.17;;
26042;SDS011;13818;52.156;5.382;2023-11-21T02:44:04;9.05;;;2.83;;
26042;SDS011;13818;52.156;5.382;2023-11-21T02:46:31;6.63;;;2.40;;
26042;SDS011;13818;52.156;5.382;2023-11-21T02:48:58;5.32;;;2.40;;
26042;SDS011;13818;52.156;5.382;2023-11-21T02:51:25;12.23;;;3.30;;
26042;SDS011;13818;52.156;5.382;2023-11-21T02:53:51;4.75;;;2.45;;
26042;SDS011;13818;52.156;5.382;2023-11-21T02:56:18;8.82;;;3.28;;
26042;SDS011;13818;52.156;5.382;2023-11-21T02:58:46;2.90;;;2.05;;
26042;SDS011;13818;52.156;5.382;2023-11-21T03:01:12;4.90;;;2.72;;
26042;SDS011;13818;52.156;5.382;2023-11-21T03:03:38;6.32;;;2.80;;
26042;SDS011;13818;52.156;5.382;2023-11-21T03:06:05;7.10;;;2.08;;
26042;SDS011;13818;52.156;5.382;2023-11-21T03:08:37;7.05;;;3.20;;
26042;SDS011;13818;52.156;5.382;2023-11-21T03:11:06;5.60;;;2.25;;
26042;SDS011;13818;52.156;5.382;2023-11-21T03:13:39;14.10;;;3.03;;
26042;SDS011;13818;52.156;5.382;2023-11-21T03:16:08;10.40;;;3.53;;
26042;SDS011;13818;52.156;5.382;2023-11-21T03:18:36;9.23;;;3.33;;
26042;SDS011;13818;52.156;5.382;2023-11-21T03:21:03;6.32;;;3.45;;
26042;SDS011;13818;52.156;5.382;2023-11-21T03:23:30;9.15;;;2.58;;
26042;SDS011;13818;52.156;5.382;2023-11-21T03:25:56;6.03;;;2.40;;
26042;SDS011;13818;52.156;5.382;2023-11-21T03:28:23;6.70;;;2.42;;
26042;SDS011;13818;52.156;5.382;2023-11-21T03:30:50;10.50;;;3.03;;
26042;SDS011;13818;52.156;5.382;2023-11-21T03:33:17;6.65;;;3.08;;
26042;SDS011;13818;52.156;5.382;2023-11-21T03:35:44;8.07;;;2.50;;
26042;SDS011;13818;52.156;5.382;2023-11-21T03:38:11;5.50;;;2.72;;
26042;SDS011;13818;52.156;5.382;2023-11-21T03:40:38;11.50;;;2.85;;
26042;SDS011;13818;52.156;5.382;2023-11-21T03:43:05;7.15;;;3.28;;
26042;SDS011;13818;52.156;5.382;2023-11-21T03:45:32;6.63;;;2.40;;
26042;SDS011;13818;52.156;5.382;2023-11-21T03:47:58;9.48;;;2.50;;
26042;SDS011;13818;52.156;5.382;2023-11-21T03:50:28;6.15;;;2.45;;
26042;SDS011;13818;52.156;5.382;2023-11-21T03:52:54;7.40;;;2.97;;
26042;SDS011;13818;52.156;5.382;2023-11-21T03:55:21;7.05;;;3.35;;
26042;SDS011;13818;52.156;5.382;2023-11-21T03:57:48;9.38;;;3.20;;
26042;SDS011;13818;52.156;5.382;2023-11-21T04:00:15;7.22;;;3.40;;
26042;SDS011;13818;52.156;5.382;2023-11-21T04:02:42;6.07;;;2.90;;
26042;SDS011;13818;52.156;5.382;2023-11-21T04:05:08;7.57;;;3.38;;
26042;SDS011;13818;52.156;5.382;2023-11-21T04:07:36;8.23;;;3.05;;
26042;SDS011;13818;52.156;5.382;2023-11-21T04:10:04;7.25;;;2.42;;
26042;SDS011;13818;52.156;5.382;2023-11-21T04:12:33;5.03;;;2.30;;
26042;SDS011;13818;52.156;5.382;2023-11-21T04:15:00;6.80;;;2.97;;
26042;SDS011;13818;52.156;5.382;2023-11-21T04:17:26;10.23;;;3.58;;
26042;SDS011;13818;52.156;5.382;2023-11-21T04:19:53;12.43;;;4.72;;
26042;SDS011;13818;52.156;5.382;2023-11-21T04:22:19;4.10;;;3.15;;
26042;SDS011;13818;52.156;5.382;2023-11-21T04:24:47;7.65;;;3.05;;
26042;SDS011;13818;52.156;5.382;2023-11-21T04:27:14;5.65;;;2.97;;
26042;SDS011;13818;52.156;5.382;2023-11-21T04:29:43;6.78;;;3.55;;
26042;SDS011;13818;52.156;5.382;2023-11-21T04:32:09;5.35;;;2.85;;
26042;SDS011;13818;52.156;5.382;2023-11-21T04:34:36;13.55;;;4.75;;
26042;SDS011;13818;52.156;5.382;2023-11-21T04:37:02;10.43;;;4.22;;
26042;SDS011;13818;52.156;5.382;2023-11-21T04:39:31;6.70;;;3.15;;
26042;SDS011;13818;52.156;5.382;2023-11-21T04:41:59;6.50;;;3.47;;
26042;SDS011;13818;52.156;5.382;2023-11-21T04:44:25;7.95;;;3.13;;
26042;SDS011;13818;52.156;5.382;2023-11-21T04:46:52;8.70;;;2.88;;
26042;SDS011;13818;52.156;5.382;2023-11-21T04:49:18;4.53;;;3.08;;
26042;SDS011;13818;52.156;5.382;2023-11-21T04:51:45;8.80;;;3.47;;
26042;SDS011;13818;52.156;5.382;2023-11-21T04:54:11;9.57;;;4.47;;
26042;SDS011;13818;52.156;5.382;2023-11-21T04:56:38;7.82;;;3.08;;
26042;SDS011;13818;52.156;5.382;2023-11-21T04:59:05;7.00;;;3.22;;
26042;SDS011;13818;52.156;5.382;2023-11-21T05:01:32;8.02;;;4.15;;
26042;SDS011;13818;52.156;5.382;2023-11-21T05:03:58;6.95;;;4.13;;
26042;SDS011;13818;52.156;5.382;2023-11-21T05:06:25;9.50;;;3.95;;
26042;SDS011;13818;52.156;5.382;2023-11-21T05:08:51;6.30;;;3.05;;
26042;SDS011;13818;52.156;5.382;2023-11-21T05:11:24;8.40;;;3.63;;
26042;SDS011;13818;52.156;5.382;2023-11-21T05:13:51;4.97;;;2.97;;
26042;SDS011;13818;52.156;5.382;2023-11-21T05:16:19;6.30;;;3.67;;
26042;SDS011;13818;52.156;5.382;2023-11-21T05:18:46;9.32;;;3.70;;
26042;SDS011;13818;52.156;5.382;2023-11-21T05:21:13;7.35;;;3.33;;
26042;SDS011;13818;52.156;5.382;2023-11-21T05:23:40;10.10;;;3.25;;
26042;SDS011;13818;52.156;5.382;2023-11-21T05:26:06;8.07;;;3.38;;
26042;SDS011;13818;52.156;5.382;2023-11-21T05:28:33;10.65;;;3.92;;
26042;SDS011;13818;52.156;5.382;2023-11-21T05:30:59;4.60;;;2.95;;
26042;SDS011;13818;52.156;5.382;2023-11-21T05:33:28;6.68;;;3.65;;
26042;SDS011;13818;52.156;5.382;2023-11-21T05:35:54;3.58;;;2.50;;
26042;SDS011;13818;52.156;5.382;2023-11-21T05:38:21;9.13;;;3.58;;
26042;SDS011;13818;52.156;5.382;2023-11-21T05:40:47;7.78;;;3.25;;
26042;SDS011;13818;52.156;5.382;2023-11-21T05:43:14;5.78;;;3.20;;
26042;SDS011;13818;52.156;5.382;2023-11-21T05:45:41;11.48;;;3.55;;
26042;SDS011;13818;52.156;5.382;2023-11-21T05:48:07;12.10;;;3.40;;
26042;SDS011;13818;52.156;5.382;2023-11-21T05:50:35;17.85;;;4.88;;
26042;SDS011;13818;52.156;5.382;2023-11-21T05:53:03;6.53;;;3.40;;
26042;SDS011;13818;52.156;5.382;2023-11-21T05:55:30;11.60;;;4.15;;
26042;SDS011;13818;52.156;5.382;2023-11-21T05:57:56;7.03;;;3.92;;
26042;SDS011;13818;52.156;5.382;2023-11-21T06:00:23;10.98;;;4.18;;
26042;SDS011;13818;52.156;5.382;2023-11-21T06:02:50;6.28;;;3.28;;
26042;SDS011;13818;52.156;5.382;2023-11-21T06:05:19;5.70;;;2.72;;
26042;SDS011;13818;52.156;5.382;2023-11-21T06:07:50;11.05;;;3.70;;
26042;SDS011;13818;52.156;5.382;2023-11-21T06:10:19;5.72;;;3.30;;
26042;SDS011;13818;52.156;5.382;2023-11-21T06:12:48;7.35;;;3.25;;
26042;SDS011;13818;52.156;5.382;2023-11-21T06:15:16;6.82;;;4.18;;
26042;SDS011;13818;52.156;5.382;2023-11-21T06:17:46;6.38;;;3.70;;
26042;SDS011;13818;52.156;5.382;2023-11-21T06:20:17;9.30;;;4.00;;
26042;SDS011;13818;52.156;5.382;2023-11-21T06:22:44;12.70;;;4.00;;
26042;SDS011;13818;52.156;5.382;2023-11-21T06:25:13;8.73;;;3.53;;
26042;SDS011;13818;52.156;5.382;2023-11-21T06:27:41;6.75;;;3.80;;
26042;SDS011;13818;52.156;5.382;2023-11-21T06:30:10;8.70;;;4.22;;
26042;SDS011;13818;52.156;5.382;2023-11-21T06:32:38;8.60;;;3.80;;
26042;SDS011;13818;52.156;5.382;2023-11-21T06:35:06;10.63;;;3.33;;
26042;SDS011;13818;52.156;5.382;2023-11-21T06:37:35;5.97;;;3.05;;
26042;SDS011;13818;52.156;5.382;2023-11-21T06:40:01;8.00;;;3.20;;
26042;SDS011;13818;52.156;5.382;2023-11-21T06:42:31;5.95;;;3.67;;
26042;SDS011;13818;52.156;5.382;2023-11-21T06:44:58;5.25;;;3.38;;
26042;SDS011;13818;52.156;5.382;2023-11-21T06:47:28;7.60;;;2.88;;
26042;SDS011;13818;52.156;5.382;2023-11-21T06:49:55;7.75;;;3.17;;
26042;SDS011;13818;52.156;5.382;2023-11-21T06:52:22;8.38;;;3.53;;
26042;SDS011;13818;52.156;5.382;2023-11-21T06:54:48;12.93;;;3.67;;
26042;SDS011;13818;52.156;5.382;2023-11-21T06:57:15;11.23;;;4.03;;
26042;SDS011;13818;52.156;5.382;2023-11-21T06:59:43;8.50;;;3.67;;
26042;SDS011;13818;52.156;5.382;2023-11-21T07:02:10;6.63;;;3.08;;
26042;SDS011;13818;52.156;5.382;2023-11-21T07:04:36;4.32;;;2.63;;
26042;SDS011;13818;52.156;5.382;2023-11-21T07:07:03;7.15;;;3.05;;
26042;SDS011;13818;52.156;5.382;2023-11-21T07:09:32;6.85;;;2.40;;
26042;SDS011;13818;52.156;5.382;2023-11-21T07:11:59;6.55;;;3.03;;
26042;SDS011;13818;52.156;5.382;2023-11-21T07:14:26;5.45;;;3.33;;
26042;SDS011;13818;52.156;5.382;2023-11-21T07:16:54;6.90;;;3.60;;
26042;SDS011;13818;52.156;5.382;2023-11-21T07:19:21;7.03;;;2.95;;
26042;SDS011;13818;52.156;5.382;2023-11-21T07:21:48;5.32;;;2.90;;
26042;SDS011;13818;52.156;5.382;2023-11-21T07:24:16;11.90;;;3.90;;
26042;SDS011;13818;52.156;5.382;2023-11-21T07:26:42;9.45;;;3.10;;
26042;SDS011;13818;52.156;5.382;2023-11-21T07:29:09;10.07;;;3.50;;
26042;SDS011;13818;52.156;5.382;2023-11-21T07:31:36;6.80;;;3.03;;
26042;SDS011;13818;52.156;5.382;2023-11-21T07:34:04;10.60;;;3.20;;
26042;SDS011;13818;52.156;5.382;2023-11-21T07:36:31;8.82;;;2.97;;
26042;SDS011;13818;52.156;5.382;2023-11-21T07:38:57;5.68;;;2.65;;
26042;SDS011;13818;52.156;5.382;2023-11-21T07:41:24;3.80;;;2.25;;
26042;SDS011;13818;52.156;5.382;2023-11-21T07:43:50;4.97;;;2.90;;
26042;SDS011;13818;52.156;5.382;2023-11-21T07:46:17;6.90;;;2.30;;
26042;SDS011;13818;52.156;5.382;2023-11-21T07:48:44;8.82;;;2.97;;
26042;SDS011;13818;52.156;5.382;2023-11-21T07:51:12;8.55;;;2.55;;
26042;SDS011;13818;52.156;5.382;2023-11-21T07:53:39;7.07;;;2.17;;
26042;SDS011;13818;52.156;5.382;2023-11-21T07:56:06;6.93;;;2.20;;
26042;SDS011;13818;52.156;5.382;2023-11-21T07:58:34;3.90;;;2.33;;
26042;SDS011;13818;52.156;5.382;2023-11-21T08:01:01;7.63;;;2.70;;
26042;SDS011;13818;52.156;5.382;2023-11-21T08:03:28;5.72;;;1.83;;
26042;SDS011;13818;52.156;5.382;2023-11-21T08:05:55;3.33;;;1.70;;
26042;SDS011;13818;52.156;5.382;2023-11-21T08:08:24;5.43;;;2.40;;
26042;SDS011;13818;52.156;5.382;2023-11-21T08:10:51;5.88;;;2.72;;
26042;SDS011;13818;52.156;5.382;2023-11-21T08:13:21;4.80;;;2.00;;
26042;SDS011;13818;52.156;5.382;2023-11-21T08:15:48;9.48;;;1.92;;
26042;SDS011;13818;52.156;5.382;2023-11-21T08:18:14;6.85;;;2.75;;
26042;SDS011;13818;52.156;5.382;2023-11-21T08:20:42;10.95;;;2.75;;
26042;SDS011;13818;52.156;5.382;2023-11-21T08:23:12;5.68;;;2.35;;
26042;SDS011;13818;52.156;5.382;2023-11-21T08:25:42;6.43;;;2.30;;
26042;SDS011;13818;52.156;5.382;2023-11-21T08:28:09;4.55;;;2.80;;
26042;SDS011;13818;52.156;5.382;2023-11-21T08:30:37;2.65;;;1.52;;
26042;SDS011;13818;52.156;5.382;2023-11-21T08:33:04;3.42;;;1.75;;
26042;SDS011;13818;52.156;5.382;2023-11-21T08:35:31;4.10;;;2.40;;
26042;SDS011;13818;52.156;5.382;2023-11-21T08:37:57;3.92;;;1.73;;
26042;SDS011;13818;52.156;5.382;2023-11-21T08:40:24;5.13;;;2.33;;
26042;SDS011;13818;52.156;5.382;2023-11-21T08:42:51;8.05;;;2.47;;
26042;SDS011;13818;52.156;5.382;2023-11-21T08:45:18;5.38;;;1.92;;
26042;SDS011;13818;52.156;5.382;2023-11-21T08:47:45;4.50;;;2.85;;
26042;SDS011;13818;52.156;5.382;2023-11-21T08:50:11;5.22;;;3.00;;
26042;SDS011;13818;52.156;5.382;2023-11-21T08:52:38;7.75;;;3.10;;
26042;SDS011;13818;52.156;5.382;2023-11-21T08:55:05;4.20;;;1.90;;
26042;SDS011;13818;52.156;5.382;2023-11-21T08:57:33;5.63;;;4.13;;
26042;SDS011;13818;52.156;5.382;2023-11-21T09:00:01;11.35;;;2.72;;
26042;SDS011;13818;52.156;5.382;2023-11-21T09:02:30;4.80;;;2.10;;
26042;SDS011;13818;52.156;5.382;2023-11-21T09:04:56;10.23;;;3.70;;
26042;SDS011;13818;52.156;5.382;2023-11-21T09:07:24;3.75;;;2.40;;
26042;SDS011;13818;52.156;5.382;2023-11-21T09:09:50;8.88;;;2.80;;
26042;SDS011;13818;52.156;5.382;2023-11-21T09:12:17;3.75;;;2.38;;
26042;SDS011;13818;52.156;5.382;2023-11-21T09:14:44;7.00;;;3.70;;
26042;SDS011;13818;52.156;5.382;2023-11-21T09:17:12;9.05;;;3.65;;
26042;SDS011;13818;52.156;5.382;2023-11-21T09:19:39;7.65;;;2.70;;
26042;SDS011;13818;52.156;5.382;2023-11-21T09:22:06;10.00;;;3.80;;
26042;SDS011;13818;52.156;5.382;2023-11-21T09:24:32;7.45;;;3.72;;
26042;SDS011;13818;52.156;5.382;2023-11-21T09:26:59;10.57;;;4.78;;
26042;SDS011;13818;52.156;5.382;2023-11-21T09:29:26;7.57;;;3.83;;
26042;SDS011;13818;52.156;5.382;2023-11-21T09:31:53;8.52;;;4.47;;
26042;SDS011;13818;52.156;5.382;2023-11-21T09:34:22;8.80;;;4.35;;
26042;SDS011;13818;52.156;5.382;2023-11-21T09:36:48;8.10;;;3.22;;
26042;SDS011;13818;52.156;5.382;2023-11-21T09:39:15;8.05;;;3.50;;
26042;SDS011;13818;52.156;5.382;2023-11-21T09:41:43;5.38;;;2.83;;
26042;SDS011;13818;52.156;5.382;2023-11-21T09:44:13;6.93;;;3.63;;
26042;SDS011;13818;52.156;5.382;2023-11-21T09:46:44;6.88;;;4.30;;
26042;SDS011;13818;52.156;5.382;2023-11-21T09:49:14;4.97;;;2.90;;
26042;SDS011;13818;52.156;5.382;2023-11-21T09:51:43;8.88;;;4.10;;
26042;SDS011;13818;52.156;5.382;2023-11-21T09:54:13;7.05;;;3.00;;
26042;SDS011;13818;52.156;5.382;2023-11-21T09:56:42;3.80;;;2.22;;
26042;SDS011;13818;52.156;5.382;2023-11-21T09:59:10;7.45;;;3.17;;
26042;SDS011;13818;52.156;5.382;2023-11-21T10:01:41;8.25;;;2.70;;
26042;SDS011;13818;52.156;5.382;2023-11-21T10:04:08;5.75;;;2.92;;
26042;SDS011;13818;52.156;5.382;2023-11-21T10:06:37;6.80;;;3.30;;
26042;SDS011;13818;52.156;5.382;2023-11-21T10:09:06;6.97;;;4.00;;
26042;SDS011;13818;52.156;5.382;2023-11-21T10:11:37;4.07;;;2.55;;
26042;SDS011;13818;52.156;5.382;2023-11-21T10:14:06;6.70;;;2.78;;
26042;SDS011;13818;52.156;5.382;2023-11-21T10:16:37;7.70;;;3.38;;
26042;SDS011;13818;52.156;5.382;2023-11-21T10:19:05;7.43;;;3.13;;
26042;SDS011;13818;52.156;5.382;2023-11-21T10:21:32;4.22;;;2.60;;
26042;SDS011;13818;52.156;5.382;2023-11-21T10:23:59;5.03;;;2.22;;
26042;SDS011;13818;52.156;5.382;2023-11-21T10:26:27;4.95;;;2.00;;
26042;SDS011;13818;52.156;5.382;2023-11-21T10:28:57;5.82;;;1.98;;
26042;SDS011;13818;52.156;5.382;2023-11-21T10:31:23;6.57;;;2.90;;
26042;SDS011;13818;52.156;5.382;2023-11-21T10:33:50;7.50;;;2.47;;
26042;SDS011;13818;52.156;5.382;2023-11-21T10:36:24;6.32;;;2.55;;
26042;SDS011;13818;52.156;5.382;2023-11-21T10:38:52;5.03;;;3.40;;
26042;SDS011;13818;52.156;5.382;2023-11-21T10:41:19;6.40;;;2.75;;
26042;SDS011;13818;52.156;5.382;2023-11-21T10:43:47;5.53;;;3.05;;
26042;SDS011;13818;52.156;5.382;2023-11-21T10:46:14;5.20;;;3.53;;
26042;SDS011;13818;52.156;5.382;2023-11-21T10:48:41;10.15;;;3.72;;
26042;SDS011;13818;52.156;5.382;2023-11-21T10:51:08;6.03;;;3.33;;
26042;SDS011;13818;52.156;5.382;2023-11-21T10:53:38;6.43;;;2.58;;
26042;SDS011;13818;52.156;5.382;2023-11-21T10:56:06;10.13;;;3.58;;
26042;SDS011;13818;52.156;5.382;2023-11-21T10:58:36;6.57;;;3.00;;
26042;SDS011;13818;52.156;5.382;2023-11-21T11:01:06;8.70;;;3.40;;
26042;SDS011;13818;52.156;5.382;2023-11-21T11:03:36;9.50;;;3.70;;
26042;SDS011;13818;52.156;5.382;2023-11-21T11:06:04;7.32;;;2.90;;
26042;SDS011;13818;52.156;5.382;2023-11-21T11:08:36;5.28;;;3.05;;
26042;SDS011;13818;52.156;5.382;2023-11-21T11:11:03;6.18;;;3.55;;
26042;SDS011;13818;52.156;5.382;2023-11-21T11:13:30;5.97;;;2.65;;
26042;SDS011;13818;52.156;5.382;2023-11-21T11:15:58;4.00;;;2.60;;
26042;SDS011;13818;52.156;5.382;2023-11-21T11:18:28;10.25;;;4.18;;
26042;SDS011;13818;52.156;5.382;2023-11-21T11:20:55;10.55;;;3.80;;
26042;SDS011;13818;52.156;5.382;2023-11-21T11:23:49;6.53;;;2.95;;
26042;SDS011;13818;52.156;5.382;2023-11-21T11:26:36;6.95;;;3.47;;
26042;SDS011;13818;52.156;5.382;2023-11-21T11:29:10;9.73;;;3.42;;
26042;SDS011;13818;52.156;5.382;2023-11-21T11:31:48;6.50;;;3.20;;
26042;SDS011;13818;52.156;5.382;2023-11-21T11:34:23;7.28;;;2.90;;
26042;SDS011;13818;52.156;5.382;2023-11-21T11:36:58;5.78;;;3.63;;
26042;SDS011;13818;52.156;5.382;2023-11-21T11:39:28;6.60;;;3.40;;
26042;SDS011;13818;52.156;5.382;2023-11-21T11:41:56;7.57;;;3.50;;
26042;SDS011;13818;52.156;5.382;2023-11-21T11:47:16;7.78;;;4.20;;
26042;SDS011;13818;52.156;5.382;2023-11-21T11:49:56;8.85;;;4.63;;
26042;SDS011;13818;52.156;5.382;2023-11-21T11:52:34;9.13;;;4.07;;
26042;SDS011;13818;52.156;5.382;2023-11-21T11:55:03;7.07;;;3.47;;
26042;SDS011;13818;52.156;5.382;2023-11-21T12:00:13;10.68;;;3.80;;
26042;SDS011;13818;52.156;5.382;2023-11-21T12:02:44;6.28;;;3.65;;
26042;SDS011;13818;52.156;5.382;2023-11-21T12:05:14;11.02;;;4.47;;
26042;SDS011;13818;52.156;5.382;2023-11-21T12:07:44;7.10;;;4.07;;
26042;SDS011;13818;52.156;5.382;2023-11-21T12:10:15;10.88;;;4.25;;
26042;SDS011;13818;52.156;5.382;2023-11-21T12:12:44;8.88;;;4.03;;
26042;SDS011;13818;52.156;5.382;2023-11-21T12:15:12;8.60;;;4.95;;
26042;SDS011;13818;52.156;5.382;2023-11-21T12:17:39;10.38;;;5.88;;
26042;SDS011;13818;52.156;5.382;2023-11-21T12:20:06;9.40;;;4.90;;
26042;SDS011;13818;52.156;5.382;2023-11-21T12:22:42;9.27;;;4.70;;
26042;SDS011;13818;52.156;5.382;2023-11-21T12:25:09;10.90;;;4.85;;
26042;SDS011;13818;52.156;5.382;2023-11-21T12:27:41;9.88;;;4.38;;
26042;SDS011;13818;52.156;5.382;2023-11-21T12:30:08;7.45;;;3.42;;
26042;SDS011;13818;52.156;5.382;2023-11-21T12:32:38;7.32;;;4.47;;
26042;SDS011;13818;52.156;5.382;2023-11-21T12:35:06;9.63;;;4.80;;
26042;SDS011;13818;52.156;5.382;2023-11-21T12:37:33;9.93;;;4.35;;
26042;SDS011;13818;52.156;5.382;2023-11-21T12:40:00;10.43;;;5.50;;
26042;SDS011;13818;52.156;5.382;2023-11-21T12:42:28;8.68;;;3.05;;
26042;SDS011;13818;52.156;5.382;2023-11-21T12:45:18;7.30;;;3.67;;
26042;SDS011;13818;52.156;5.382;2023-11-21T12:47:46;12.82;;;5.20;;
26042;SDS011;13818;52.156;5.382;2023-11-21T12:52:41;7.53;;;2.90;;
26042;SDS011;13818;52.156;5.382;2023-11-21T12:55:14;4.85;;;2.97;;
26042;SDS011;13818;52.156;5.382;2023-11-21T12:57:42;7.13;;;3.10;;
26042;SDS011;13818;52.156;5.382;2023-11-21T13:00:10;5.50;;;3.42;;
26042;SDS011;13818;52.156;5.382;2023-11-21T13:02:50;7.28;;;3.35;;
26042;SDS011;13818;52.156;5.382;2023-11-21T13:05:23;7.88;;;2.78;;
26042;SDS011;13818;52.156;5.382;2023-11-21T13:07:50;4.43;;;2.22;;
26042;SDS011;13818;52.156;5.382;2023-11-21T13:10:21;5.00;;;2.55;;
26042;SDS011;13818;52.156;5.382;2023-11-21T13:12:52;3.33;;;1.63;;
26042;SDS011;13818;52.156;5.382;2023-11-21T13:15:20;7.70;;;2.40;;
26042;SDS011;13818;52.156;5.382;2023-11-21T13:17:46;6.78;;;2.35;;
26042;SDS011;13818;52.156;5.382;2023-11-21T13:20:13;2.72;;;2.25;;
26042;SDS011;13818;52.156;5.382;2023-11-21T13:22:48;4.60;;;1.77;;
26042;SDS011;13818;52.156;5.382;2023-11-21T13:25:17;3.63;;;1.48;;
26042;SDS011;13818;52.156;5.382;2023-11-21T13:27:46;7.13;;;1.90;;
26042;SDS011;13818;52.156;5.382;2023-11-21T13:30:13;1.63;;;1.00;;
26042;SDS011;13818;52.156;5.382;2023-11-21T13:32:44;4.53;;;1.33;;
26042;SDS011;13818;52.156;5.382;2023-11-21T13:35:11;6.13;;;1.80;;
26042;SDS011;13818;52.156;5.382;2023-11-21T13:37:46;4.45;;;1.30;;
26042;SDS011;13818;52.156;5.382;2023-11-21T13:40:16;3.40;;;1.75;;
26042;SDS011;13818;52.156;5.382;2023-11-21T13:42:48;3.08;;;1.73;;
26042;SDS011;13818;52.156;5.382;2023-11-21T13:45:18;2.67;;;1.20;;
26042;SDS011;13818;52.156;5.382;2023-11-21T13:47:48;3.40;;;1.83;;
26042;SDS011;13818;52.156;5.382;2023-11-21T13:50:16;3.65;;;2.13;;
26042;SDS011;13818;52.156;5.382;2023-11-21T13:52:47;4.50;;;1.83;;
26042;SDS011;13818;52.156;5.382;2023-11-21T13:55:14;5.43;;;3.35;;
26042;SDS011;13818;52.156;5.382;2023-11-21T13:57:41;4.47;;;1.90;;
26042;SDS011;13818;52.156;5.382;2023-11-21T14:00:12;11.07;;;3.78;;
26042;SDS011;13818;52.156;5.382;2023-11-21T14:02:59;4.15;;;2.47;;
26042;SDS011;13818;52.156;5.382;2023-11-21T14:05:27;3.60;;;2.22;;
26042;SDS011;13818;52.156;5.382;2023-11-21T14:07:56;5.13;;;3.13;;
26042;SDS011;13818;52.156;5.382;2023-11-21T14:10:28;8.90;;;2.90;;
26042;SDS011;13818;52.156;5.382;2023-11-21T14:13:02;6.55;;;3.35;;
26042;SDS011;13818;52.156;5.382;2023-11-21T14:15:33;9.95;;;4.82;;
26042;SDS011;13818;52.156;5.382;2023-11-21T14:18:06;5.53;;;3.40;;
26042;SDS011;13818;52.156;5.382;2023-11-21T14:20:35;4.93;;;2.80;;
26042;SDS011;13818;52.156;5.382;2023-11-21T14:23:02;6.30;;;2.72;;
26042;SDS011;13818;52.156;5.382;2023-11-21T14:25:30;9.50;;;4.30;;
26042;SDS011;13818;52.156;5.382;2023-11-21T14:27:57;7.10;;;3.60;;
26042;SDS011;13818;52.156;5.382;2023-11-21T14:30:23;7.38;;;4.75;;
26042;SDS011;13818;52.156;5.382;2023-11-21T14:32:52;11.18;;;4.28;;
26042;SDS011;13818;52.156;5.382;2023-11-21T14:35:19;6.35;;;3.55;;
26042;SDS011;13818;52.156;5.382;2023-11-21T14:37:45;7.63;;;4.32;;
26042;SDS011;13818;52.156;5.382;2023-11-21T14:40:12;5.82;;;3.25;;
26042;SDS011;13818;52.156;5.382;2023-11-21T14:42:41;7.25;;;3.65;;
26042;SDS011;13818;52.156;5.382;2023-11-21T14:45:13;10.40;;;5.38;;
26042;SDS011;13818;52.156;5.382;2023-11-21T14:47:44;8.80;;;5.30;;
26042;SDS011;13818;52.156;5.382;2023-11-21T14:50:21;6.50;;;3.97;;
26042;SDS011;13818;52.156;5.382;2023-11-21T14:53:09;11.73;;;5.20;;
26042;SDS011;13818;52.156;5.382;2023-11-21T14:55:37;9.88;;;4.60;;
26042;SDS011;13818;52.156;5.382;2023-11-21T14:58:18;11.27;;;4.65;;
26042;SDS011;13818;52.156;5.382;2023-11-21T15:00:51;9.13;;;6.30;;